createdAt,value
2023-03-08T00:02:44.853Z,0.72
2023-03-08T00:07:53.577Z,0.66
2023-03-08T00:12:57.325Z,0.61
2023-03-08T00:18:01.113Z,0.59
2023-03-08T00:23:07.493Z,0.56
2023-03-08T00:28:13.901Z,0.53
2023-03-08T00:33:17.597Z,0.50
2023-03-08T00:38:21.463Z,0.50
2023-03-08T00:43:25.766Z,0.50
2023-03-08T00:48:29.649Z,0.47
2023-03-08T00:53:33.454Z,0.47
2023-03-08T00:58:39.717Z,0.45
2023-03-08T01:03:44.591Z,0.43
2023-03-08T01:08:48.650Z,0.42
2023-03-08T01:13:53.372Z,0.40
2023-03-08T01:18:58.357Z,0.39
2023-03-08T01:24:02.316Z,0.40
2023-03-08T01:29:07.526Z,0.43
2023-03-08T01:34:12.057Z,0.47
2023-03-08T01:39:16.034Z,0.49
2023-03-08T01:44:24.029Z,0.48
2023-03-08T01:49:34.444Z,0.47
2023-03-08T01:54:44.394Z,0.44
2023-03-08T01:59:56.417Z,0.41
2023-03-08T02:05:00.446Z,0.37
2023-03-08T02:10:07.921Z,0.37
2023-03-08T02:15:14.709Z,0.34
2023-03-08T02:20:35.961Z,0.32
2023-03-08T02:26:00.289Z,0.30
2023-03-08T02:31:04.192Z,0.26
2023-03-08T02:36:13.267Z,0.23
2023-03-08T02:41:17.184Z,0.21
2023-03-08T02:46:21.282Z,0.19
2023-03-08T02:51:25.131Z,0.14
2023-03-08T02:56:28.898Z,0.11
2023-03-08T03:01:32.918Z,0.10
2023-03-08T03:06:37.202Z,0.09
2023-03-08T03:11:43.670Z,0.08
2023-03-08T03:16:47.751Z,0.10
2023-03-08T03:21:52.296Z,0.12
2023-03-08T03:26:56.653Z,0.14
2023-03-08T03:32:02.172Z,0.14
2023-03-08T03:37:06.416Z,0.16
2023-03-08T03:42:11.612Z,0.17
2023-03-08T03:47:19.249Z,0.17
2023-03-08T03:52:26.279Z,0.16
2023-03-08T03:57:41.769Z,0.14
2023-03-08T04:02:48.369Z,0.13
2023-03-08T04:07:54.779Z,0.09
2023-03-08T04:13:05.412Z,0.08
2023-03-08T04:18:09.796Z,0.07
2023-03-08T04:23:15.244Z,0.02
2023-03-08T04:28:21.628Z,-0.00
2023-03-08T04:33:26.879Z,-0.00
2023-03-08T04:38:31.517Z,-0.00
2023-03-08T04:43:41.295Z,-0.02
2023-03-08T04:48:46.314Z,-0.02
2023-03-08T04:53:58.304Z,-0.04
2023-03-08T04:59:04.140Z,-0.07
2023-03-08T05:04:11.167Z,-0.07
2023-03-08T05:09:16.744Z,-0.08
2023-03-08T05:14:22.976Z,-0.07
2023-03-08T05:19:27.488Z,-0.06
2023-03-08T05:24:32.930Z,-0.05
2023-03-08T05:29:41.389Z,-0.05
2023-03-08T05:34:45.594Z,-0.04
2023-03-08T05:39:54.854Z,-0.01
2023-03-08T05:45:00.110Z,0.05
2023-03-08T05:50:07.347Z,0.08
2023-03-08T05:55:19.144Z,0.12
2023-03-08T06:00:24.744Z,0.17
2023-03-08T06:05:30.944Z,0.23
2023-03-08T06:10:37.673Z,0.29
2023-03-08T06:15:43.366Z,0.35
2023-03-08T06:21:09.258Z,0.42
2023-03-08T06:26:16.356Z,0.51
2023-03-08T06:31:39.977Z,0.60
2023-03-08T06:36:44.018Z,0.69
2023-03-08T06:41:49.333Z,0.75
2023-03-08T06:46:54.080Z,0.86
2023-03-08T06:51:57.903Z,0.98
2023-03-08T06:57:01.960Z,1.10
2023-03-08T07:02:05.695Z,1.16
2023-03-08T07:07:09.541Z,1.28
2023-03-08T07:12:13.292Z,1.41
2023-03-08T07:17:16.981Z,1.48
2023-03-08T07:22:20.679Z,1.52
2023-03-08T07:27:25.107Z,1.53
2023-03-08T07:32:29.430Z,1.50
2023-03-08T07:37:33.675Z,1.56
2023-03-08T07:42:37.387Z,1.69
2023-03-08T07:47:52.904Z,1.88
2023-03-08T07:52:56.659Z,2.07
2023-03-08T07:58:00.391Z,2.32
2023-03-08T08:03:04.365Z,2.47
2023-03-08T08:08:08.126Z,2.54
2023-03-08T08:13:11.958Z,2.54
2023-03-08T08:18:15.655Z,2.60
2023-03-08T08:23:19.965Z,2.69
2023-03-08T08:28:24.831Z,2.80
2023-03-08T08:33:29.468Z,2.92
2023-03-08T08:38:33.218Z,2.99
2023-03-08T08:43:37.633Z,3.01
2023-03-08T08:48:42.084Z,3.17
2023-03-08T08:53:45.699Z,3.31
2023-03-08T08:58:49.656Z,3.44
2023-03-08T09:03:53.667Z,3.62
2023-03-08T09:08:59.122Z,3.80
2023-03-08T09:14:02.885Z,3.90
2023-03-08T09:19:06.707Z,4.09
2023-03-08T09:24:12.143Z,4.43
2023-03-08T09:29:16.131Z,4.64
2023-03-08T09:34:19.827Z,4.72
2023-03-08T09:39:23.495Z,4.79
2023-03-08T09:44:48.648Z,4.96
2023-03-08T09:49:55.860Z,4.87
2023-03-08T09:55:02.420Z,4.99
2023-03-08T10:00:09.976Z,4.93
2023-03-08T10:05:37.572Z,4.93
2023-03-08T10:10:49.421Z,5.08
2023-03-08T10:16:17.490Z,5.30
2023-03-08T10:21:25.253Z,5.48
2023-03-08T10:26:29.463Z,5.61
2023-03-08T10:31:34.216Z,5.69
2023-03-08T10:36:51.996Z,5.58
2023-03-08T10:42:00.812Z,5.60
2023-03-08T10:47:05.792Z,5.72
2023-03-08T10:52:27.637Z,5.70
2023-03-08T10:57:32.287Z,5.69
2023-03-08T11:02:36.226Z,5.90
2023-03-08T11:07:50.848Z,6.11
2023-03-08T11:13:16.245Z,6.01
2023-03-08T11:18:58.735Z,5.75
2023-03-08T11:24:32.019Z,5.62
2023-03-08T11:29:47.699Z,5.54
2023-03-08T11:34:57.625Z,5.52
2023-03-08T11:40:30.139Z,5.50
2023-03-08T11:45:45.424Z,5.30
2023-03-08T11:51:22.763Z,5.14
2023-03-08T11:56:38.339Z,5.08
2023-03-08T12:01:46.295Z,4.91
2023-03-08T12:06:50.812Z,4.63
2023-03-08T12:11:57.645Z,4.70
2023-03-08T12:17:40.108Z,4.98
2023-03-08T12:22:48.219Z,5.20
2023-03-08T12:28:24.807Z,5.35
2023-03-08T12:33:30.691Z,5.39
2023-03-08T12:38:38.541Z,5.39
2023-03-08T12:43:42.501Z,5.46
2023-03-08T12:49:06.592Z,5.44
2023-03-08T12:54:20.921Z,5.44
2023-03-08T12:59:33.168Z,5.26
2023-03-08T13:04:41.820Z,5.14
2023-03-08T13:10:30.386Z,5.18
2023-03-08T13:29:34.926Z,4.91
2023-03-08T13:34:42.158Z,4.84
2023-03-08T13:40:02.369Z,4.87
2023-03-08T13:45:19.693Z,5.02
2023-03-08T13:50:43.453Z,5.09
2023-03-08T13:55:51.645Z,5.04
2023-03-08T14:01:02.103Z,4.98
2023-03-08T14:06:30.578Z,4.87
2023-03-08T14:11:40.510Z,4.81
2023-03-08T14:16:44.421Z,4.71
2023-03-08T14:21:55.163Z,4.62
2023-03-08T14:27:07.675Z,4.60
2023-03-08T14:32:11.430Z,4.64
2023-03-08T14:37:24.351Z,4.71
2023-03-08T14:42:30.165Z,4.71
2023-03-08T14:47:36.059Z,4.68
2023-03-08T14:52:46.973Z,4.66
2023-03-08T14:57:58.107Z,4.59
2023-03-08T15:03:01.879Z,4.52
2023-03-08T15:08:07.416Z,4.47
2023-03-08T15:13:16.734Z,4.39
2023-03-08T15:18:25.128Z,4.33
2023-03-08T15:23:34.548Z,4.26
2023-03-08T15:28:38.777Z,4.17
2023-03-08T15:33:42.410Z,4.14
2023-03-08T15:38:46.351Z,4.11
2023-03-08T15:43:51.758Z,4.11
2023-03-08T15:48:55.742Z,4.10
2023-03-08T15:53:59.530Z,4.10
2023-03-08T15:59:03.656Z,4.09
2023-03-08T16:04:07.473Z,4.05
2023-03-08T16:09:11.323Z,3.98
2023-03-08T16:14:18.041Z,3.89
2023-03-08T16:19:21.698Z,3.84
2023-03-08T16:24:25.473Z,3.79
2023-03-08T16:29:30.686Z,3.74
2023-03-08T16:34:36.660Z,3.71
2023-03-08T16:39:41.771Z,3.67
2023-03-08T16:44:53.778Z,3.64
2023-03-08T16:49:59.454Z,3.63
2023-03-08T16:55:03.648Z,3.62
2023-03-08T17:00:12.594Z,3.60
2023-03-08T17:05:16.389Z,3.56
2023-03-08T17:10:20.188Z,3.56
2023-03-08T17:15:24.238Z,3.55
2023-03-08T17:20:28.468Z,3.54
2023-03-08T17:25:38.579Z,3.52
2023-03-08T17:30:47.408Z,3.53
2023-03-08T17:35:53.860Z,3.53
2023-03-08T17:40:58.227Z,3.52
2023-03-08T17:46:08.105Z,3.53
2023-03-08T17:51:15.725Z,3.53
2023-03-08T17:56:29.882Z,3.53
2023-03-08T18:01:39.186Z,3.52
2023-03-08T18:06:46.503Z,3.50
2023-03-08T18:11:51.467Z,3.48
2023-03-08T18:16:56.283Z,3.46
2023-03-08T18:22:05.065Z,3.45
2023-03-08T18:27:10.449Z,3.43
2023-03-08T18:32:16.466Z,3.42
2023-03-08T18:37:26.675Z,3.42
2023-03-08T18:42:34.743Z,3.41
2023-03-08T18:47:42.104Z,3.42
2023-03-08T18:52:50.820Z,3.40
2023-03-08T18:57:56.574Z,3.39
2023-03-08T19:03:02.121Z,3.39
2023-03-08T19:08:08.333Z,3.38
2023-03-08T19:13:14.704Z,3.36
2023-03-08T19:18:21.702Z,3.36
2023-03-08T19:23:35.470Z,3.34
2023-03-08T19:28:41.392Z,3.32
2023-03-08T19:33:50.650Z,3.32
2023-03-08T19:38:58.711Z,3.32
2023-03-08T19:44:23.838Z,3.32
2023-03-08T19:49:36.800Z,3.34
2023-03-08T19:54:48.177Z,3.34
2023-03-08T19:59:53.150Z,3.33
2023-03-08T20:05:05.855Z,3.35
2023-03-08T20:10:18.959Z,3.35
2023-03-08T20:15:24.916Z,3.36
2023-03-08T20:20:34.785Z,3.35
2023-03-08T20:25:42.413Z,3.34
2023-03-08T20:30:51.420Z,3.34
2023-03-08T20:36:02.430Z,3.33
2023-03-08T20:41:20.763Z,3.31
2023-03-08T20:46:32.152Z,3.29
2023-03-08T20:51:40.522Z,3.28
2023-03-08T20:56:47.747Z,3.27
2023-03-08T21:01:55.995Z,3.27
2023-03-08T21:07:02.213Z,3.27
2023-03-08T21:12:10.913Z,3.28
2023-03-08T21:17:18.987Z,3.28
2023-03-08T21:22:27.132Z,3.28
2023-03-08T21:27:35.807Z,3.29
2023-03-08T21:32:43.487Z,3.26
2023-03-08T21:37:52.162Z,3.23
2023-03-08T21:42:58.016Z,3.22
2023-03-08T21:48:03.021Z,3.22
2023-03-08T21:53:08.286Z,3.20
2023-03-08T21:58:12.125Z,3.20
2023-03-08T22:03:16.981Z,3.19
2023-03-08T22:08:20.880Z,3.19
2023-03-08T22:13:24.871Z,3.20
2023-03-08T22:18:29.935Z,3.19
2023-03-08T22:23:33.880Z,3.18
2023-03-08T22:28:38.734Z,3.16
2023-03-08T22:33:42.984Z,3.16
2023-03-08T22:38:47.044Z,3.14
2023-03-08T22:43:51.511Z,3.17
2023-03-08T22:48:58.006Z,3.18
2023-03-08T22:54:04.628Z,3.18
2023-03-08T22:59:08.358Z,3.18
2023-03-08T23:04:13.720Z,3.18
2023-03-08T23:09:17.608Z,3.17
2023-03-08T23:14:21.541Z,3.16
2023-03-08T23:19:25.380Z,3.17
2023-03-08T23:24:29.123Z,3.16
2023-03-08T23:29:33.001Z,3.15
2023-03-08T23:34:36.991Z,3.14
2023-03-08T23:39:40.971Z,3.11
2023-03-08T23:44:44.681Z,3.10
2023-03-08T23:49:49.281Z,3.10
2023-03-08T23:54:53.340Z,3.11
2023-03-08T23:59:58.686Z,3.10
